sensor_id;sensor_type;location;lat;lon;timestamp;temperature;humidity
53422;DHT22;39319;52.944;5.928;2023-02-13T00:02:06;9.20;99.90
53422;DHT22;39319;52.944;5.928;2023-02-13T00:04:32;9.20;99.90
53422;DHT22;39319;52.944;5.928;2023-02-13T00:06:57;9.20;99.90
53422;DHT22;39319;52.944;5.928;2023-02-13T00:09:23;9.20;99.90
53422;DHT22;39319;52.944;5.928;2023-02-13T00:11:49;9.20;99.90
53422;DHT22;39319;52.944;5.928;2023-02-13T00:14:14;9.20;99.90
53422;DHT22;39319;52.944;5.928;2023-02-13T00:16:40;9.10;99.90
53422;DHT22;39319;52.944;5.928;2023-02-13T00:19:06;9.30;99.90
53422;DHT22;39319;52.944;5.928;2023-02-13T00:21:32;9.10;99.90
53422;DHT22;39319;52.944;5.928;2023-02-13T00:23:57;9.20;99.90
53422;DHT22;39319;52.944;5.928;2023-02-13T00:26:23;9.20;99.90
53422;DHT22;39319;52.944;5.928;2023-02-13T00:28:49;9.10;99.90
53422;DHT22;39319;52.944;5.928;2023-02-13T00:31:18;9.20;99.90
53422;DHT22;39319;52.944;5.928;2023-02-13T00:33:43;9.30;99.90
53422;DHT22;39319;52.944;5.928;2023-02-13T00:36:12;9.10;99.90
53422;DHT22;39319;52.944;5.928;2023-02-13T00:38:39;9.10;99.90
53422;DHT22;39319;52.944;5.928;2023-02-13T00:41:05;9.10;99.90
53422;DHT22;39319;52.944;5.928;2023-02-13T00:43:31;9.00;99.90
53422;DHT22;39319;52.944;5.928;2023-02-13T00:45:58;9.30;99.90
53422;DHT22;39319;52.944;5.928;2023-02-13T00:48:24;9.20;99.90
53422;DHT22;39319;52.944;5.928;2023-02-13T00:50:50;9.30;99.90
53422;DHT22;39319;52.944;5.928;2023-02-13T00:53:18;9.20;99.90
53422;DHT22;39319;52.944;5.928;2023-02-13T00:55:44;9.10;99.90
53422;DHT22;39319;52.944;5.928;2023-02-13T00:58:09;9.10;99.90
53422;DHT22;39319;52.944;5.928;2023-02-13T01:00:35;9.20;99.90
53422;DHT22;39319;52.944;5.928;2023-02-13T01:03:01;9.10;99.90
53422;DHT22;39319;52.944;5.928;2023-02-13T01:05:27;9.20;99.90
53422;DHT22;39319;52.944;5.928;2023-02-13T01:07:53;9.20;99.90
53422;DHT22;39319;52.944;5.928;2023-02-13T01:10:19;9.20;99.90
53422;DHT22;39319;52.944;5.928;2023-02-13T01:12:45;9.10;99.90
53422;DHT22;39319;52.944;5.928;2023-02-13T01:15:11;9.10;99.90
53422;DHT22;39319;52.944;5.928;2023-02-13T01:17:36;9.10;99.90
53422;DHT22;39319;52.944;5.928;2023-02-13T01:20:09;9.20;99.90
53422;DHT22;39319;52.944;5.928;2023-02-13T01:22:35;9.30;99.90
53422;DHT22;39319;52.944;5.928;2023-02-13T01:25:01;9.10;99.90
53422;DHT22;39319;52.944;5.928;2023-02-13T01:27:27;9.20;99.90
53422;DHT22;39319;52.944;5.928;2023-02-13T01:29:53;9.20;99.90
53422;DHT22;39319;52.944;5.928;2023-02-13T01:32:20;9.10;99.90
53422;DHT22;39319;52.944;5.928;2023-02-13T01:34:45;9.20;99.90
53422;DHT22;39319;52.944;5.928;2023-02-13T01:37:11;9.10;99.90
53422;DHT22;39319;52.944;5.928;2023-02-13T01:39:37;9.10;99.90
53422;DHT22;39319;52.944;5.928;2023-02-13T01:42:16;9.00;99.90
53422;DHT22;39319;52.944;5.928;2023-02-13T01:48:10;9.20;99.90
53422;DHT22;39319;52.944;5.928;2023-02-13T01:50:31;9.10;99.90
53422;DHT22;39319;52.944;5.928;2023-02-13T01:52:59;9.10;99.90
53422;DHT22;39319;52.944;5.928;2023-02-13T01:55:27;9.10;99.90
53422;DHT22;39319;52.944;5.928;2023-02-13T01:58:07;9.20;99.90
53422;DHT22;39319;52.944;5.928;2023-02-13T02:00:34;9.00;99.90
53422;DHT22;39319;52.944;5.928;2023-02-13T02:03:11;9.20;99.90
53422;DHT22;39319;52.944;5.928;2023-02-13T02:05:38;9.20;99.90
53422;DHT22;39319;52.944;5.928;2023-02-13T02:08:06;9.20;99.90
53422;DHT22;39319;52.944;5.928;2023-02-13T02:10:33;9.00;99.90
53422;DHT22;39319;52.944;5.928;2023-02-13T02:13:10;9.20;99.90
53422;DHT22;39319;52.944;5.928;2023-02-13T02:15:36;9.20;99.90
53422;DHT22;39319;52.944;5.928;2023-02-13T02:18:12;9.10;99.90
53422;DHT22;39319;52.944;5.928;2023-02-13T02:23:59;9.10;99.90
53422;DHT22;39319;52.944;5.928;2023-02-13T02:27:08;9.20;99.90
53422;DHT22;39319;52.944;5.928;2023-02-13T02:33:11;9.30;99.90
53422;DHT22;39319;52.944;5.928;2023-02-13T02:36:07;9.20;99.90
53422;DHT22;39319;52.944;5.928;2023-02-13T02:38:46;9.30;99.80
53422;DHT22;39319;52.944;5.928;2023-02-13T02:41:34;9.30;99.80
53422;DHT22;39319;52.944;5.928;2023-02-13T02:58:08;9.20;99.90
53422;DHT22;39319;52.944;5.928;2023-02-13T03:00:54;9.10;99.90
53422;DHT22;39319;52.944;5.928;2023-02-13T03:03:40;9.20;99.90
53422;DHT22;39319;52.944;5.928;2023-02-13T03:06:26;9.20;99.90
53422;DHT22;39319;52.944;5.928;2023-02-13T03:09:00;9.40;99.90
53422;DHT22;39319;52.944;5.928;2023-02-13T03:11:53;9.20;99.90
53422;DHT22;39319;52.944;5.928;2023-02-13T03:14:38;9.10;99.90
53422;DHT22;39319;52.944;5.928;2023-02-13T03:17:04;9.30;99.90
53422;DHT22;39319;52.944;5.928;2023-02-13T03:20:28;9.20;99.90
53422;DHT22;39319;52.944;5.928;2023-02-13T03:23:22;9.20;99.90
53422;DHT22;39319;52.944;5.928;2023-02-13T03:28:51;9.10;99.90
53422;DHT22;39319;52.944;5.928;2023-02-13T03:32:16;9.00;99.90
53422;DHT22;39319;52.944;5.928;2023-02-13T03:34:53;9.00;99.90
53422;DHT22;39319;52.944;5.928;2023-02-13T03:37:43;9.20;99.90
53422;DHT22;39319;52.944;5.928;2023-02-13T03:42:58;9.20;99.90
53422;DHT22;39319;52.944;5.928;2023-02-13T03:45:29;9.30;99.90
53422;DHT22;39319;52.944;5.928;2023-02-13T03:48:18;9.20;99.90
53422;DHT22;39319;52.944;5.928;2023-02-13T03:51:31;9.00;99.90
53422;DHT22;39319;52.944;5.928;2023-02-13T03:54:02;9.10;99.90
53422;DHT22;39319;52.944;5.928;2023-02-13T03:56:31;9.10;99.90
53422;DHT22;39319;52.944;5.928;2023-02-13T03:59:25;9.00;99.90
53422;DHT22;39319;52.944;5.928;2023-02-13T04:02:00;9.00;99.90
53422;DHT22;39319;52.944;5.928;2023-02-13T04:04:58;9.10;99.90
53422;DHT22;39319;52.944;5.928;2023-02-13T04:07:28;8.90;99.90
53422;DHT22;39319;52.944;5.928;2023-02-13T04:10:10;9.00;99.90
53422;DHT22;39319;52.944;5.928;2023-02-13T04:15:30;9.10;99.90
53422;DHT22;39319;52.944;5.928;2023-02-13T04:20:31;9.00;99.90
53422;DHT22;39319;52.944;5.928;2023-02-13T04:23:06;9.10;99.90
53422;DHT22;39319;52.944;5.928;2023-02-13T04:25:33;9.10;99.90
53422;DHT22;39319;52.944;5.928;2023-02-13T04:28:00;9.10;99.90
53422;DHT22;39319;52.944;5.928;2023-02-13T04:30:26;9.10;99.90
53422;DHT22;39319;52.944;5.928;2023-02-13T04:32:51;9.10;99.90
53422;DHT22;39319;52.944;5.928;2023-02-13T04:35:17;9.00;99.90
53422;DHT22;39319;52.944;5.928;2023-02-13T04:37:43;9.10;99.90
53422;DHT22;39319;52.944;5.928;2023-02-13T04:40:09;9.00;99.90
53422;DHT22;39319;52.944;5.928;2023-02-13T04:42:35;9.10;99.90
53422;DHT22;39319;52.944;5.928;2023-02-13T04:45:01;9.00;99.90
53422;DHT22;39319;52.944;5.928;2023-02-13T04:47:26;9.00;99.90
53422;DHT22;39319;52.944;5.928;2023-02-13T04:49:52;9.00;99.90
53422;DHT22;39319;52.944;5.928;2023-02-13T04:52:18;9.10;99.90
53422;DHT22;39319;52.944;5.928;2023-02-13T04:54:43;9.10;99.90
53422;DHT22;39319;52.944;5.928;2023-02-13T04:57:09;9.00;99.90
53422;DHT22;39319;52.944;5.928;2023-02-13T04:59:35;9.00;99.90
53422;DHT22;39319;52.944;5.928;2023-02-13T05:02:01;9.00;99.90
53422;DHT22;39319;52.944;5.928;2023-02-13T05:04:26;8.90;99.90
53422;DHT22;39319;52.944;5.928;2023-02-13T05:06:53;9.00;99.90
53422;DHT22;39319;52.944;5.928;2023-02-13T05:09:19;9.00;99.90
53422;DHT22;39319;52.944;5.928;2023-02-13T05:11:45;9.00;99.90
53422;DHT22;39319;52.944;5.928;2023-02-13T05:14:11;9.00;99.90
53422;DHT22;39319;52.944;5.928;2023-02-13T05:16:36;8.90;99.90
53422;DHT22;39319;52.944;5.928;2023-02-13T05:19:02;9.00;99.90
53422;DHT22;39319;52.944;5.928;2023-02-13T05:21:30;9.00;99.90
53422;DHT22;39319;52.944;5.928;2023-02-13T05:24:15;9.00;99.90
53422;DHT22;39319;52.944;5.928;2023-02-13T05:26:40;8.80;99.90
53422;DHT22;39319;52.944;5.928;2023-02-13T05:29:08;9.00;99.90
53422;DHT22;39319;52.944;5.928;2023-02-13T05:31:44;8.90;99.90
53422;DHT22;39319;52.944;5.928;2023-02-13T05:34:10;8.80;99.90
53422;DHT22;39319;52.944;5.928;2023-02-13T05:36:37;9.00;99.90
53422;DHT22;39319;52.944;5.928;2023-02-13T05:39:04;8.80;99.90
53422;DHT22;39319;52.944;5.928;2023-02-13T05:41:30;8.90;99.90
53422;DHT22;39319;52.944;5.928;2023-02-13T05:43:56;9.00;99.90
53422;DHT22;39319;52.944;5.928;2023-02-13T05:46:24;8.90;99.90
53422;DHT22;39319;52.944;5.928;2023-02-13T05:48:50;8.80;99.90
53422;DHT22;39319;52.944;5.928;2023-02-13T05:51:17;8.90;99.90
53422;DHT22;39319;52.944;5.928;2023-02-13T05:53:43;9.00;99.90
53422;DHT22;39319;52.944;5.928;2023-02-13T05:56:08;9.00;99.90
53422;DHT22;39319;52.944;5.928;2023-02-13T05:58:34;8.90;99.90
53422;DHT22;39319;52.944;5.928;2023-02-13T06:01:00;9.00;99.90
53422;DHT22;39319;52.944;5.928;2023-02-13T06:03:27;8.90;99.90
53422;DHT22;39319;52.944;5.928;2023-02-13T06:05:53;8.90;99.90
53422;DHT22;39319;52.944;5.928;2023-02-13T06:08:20;9.00;99.90
53422;DHT22;39319;52.944;5.928;2023-02-13T06:10:47;9.00;99.90
53422;DHT22;39319;52.944;5.928;2023-02-13T06:13:13;8.90;99.90
53422;DHT22;39319;52.944;5.928;2023-02-13T06:15:39;8.80;99.90
53422;DHT22;39319;52.944;5.928;2023-02-13T06:18:05;8.90;99.90
53422;DHT22;39319;52.944;5.928;2023-02-13T06:20:30;8.90;99.90
53422;DHT22;39319;52.944;5.928;2023-02-13T06:22:56;8.90;99.90
53422;DHT22;39319;52.944;5.928;2023-02-13T06:25:22;9.00;99.90
53422;DHT22;39319;52.944;5.928;2023-02-13T06:27:48;8.80;99.90
53422;DHT22;39319;52.944;5.928;2023-02-13T06:30:15;8.80;99.90
53422;DHT22;39319;52.944;5.928;2023-02-13T06:32:41;9.00;99.90
53422;DHT22;39319;52.944;5.928;2023-02-13T06:35:07;8.90;99.90
53422;DHT22;39319;52.944;5.928;2023-02-13T06:37:33;9.10;99.90
53422;DHT22;39319;52.944;5.928;2023-02-13T06:39:59;8.90;99.90
53422;DHT22;39319;52.944;5.928;2023-02-13T06:42:25;8.90;99.90
53422;DHT22;39319;52.944;5.928;2023-02-13T06:44:50;8.90;99.90
53422;DHT22;39319;52.944;5.928;2023-02-13T06:47:16;9.00;99.90
53422;DHT22;39319;52.944;5.928;2023-02-13T06:49:42;8.90;99.90
53422;DHT22;39319;52.944;5.928;2023-02-13T06:52:08;9.00;99.90
53422;DHT22;39319;52.944;5.928;2023-02-13T06:54:33;9.00;99.90
53422;DHT22;39319;52.944;5.928;2023-02-13T06:56:59;8.90;99.90
53422;DHT22;39319;52.944;5.928;2023-02-13T06:59:25;9.00;99.90
53422;DHT22;39319;52.944;5.928;2023-02-13T07:01:51;8.90;99.90
53422;DHT22;39319;52.944;5.928;2023-02-13T07:04:16;9.00;99.90
53422;DHT22;39319;52.944;5.928;2023-02-13T07:06:42;9.00;99.90
53422;DHT22;39319;52.944;5.928;2023-02-13T07:09:08;9.00;99.90
53422;DHT22;39319;52.944;5.928;2023-02-13T07:11:33;9.00;99.90
53422;DHT22;39319;52.944;5.928;2023-02-13T07:13:59;9.00;99.90
53422;DHT22;39319;52.944;5.928;2023-02-13T07:16:27;9.00;99.90
53422;DHT22;39319;52.944;5.928;2023-02-13T07:18:53;9.10;99.90
53422;DHT22;39319;52.944;5.928;2023-02-13T07:21:19;9.00;99.90
53422;DHT22;39319;52.944;5.928;2023-02-13T07:23:44;9.00;99.90
53422;DHT22;39319;52.944;5.928;2023-02-13T07:26:10;9.00;99.90
53422;DHT22;39319;52.944;5.928;2023-02-13T07:28:36;8.90;99.90
53422;DHT22;39319;52.944;5.928;2023-02-13T07:31:05;9.00;99.90
53422;DHT22;39319;52.944;5.928;2023-02-13T07:33:34;8.90;99.90
53422;DHT22;39319;52.944;5.928;2023-02-13T07:36:02;9.10;99.90
53422;DHT22;39319;52.944;5.928;2023-02-13T07:38:29;9.00;99.90
53422;DHT22;39319;52.944;5.928;2023-02-13T07:40:59;9.10;99.90
53422;DHT22;39319;52.944;5.928;2023-02-13T07:43:25;9.00;99.90
53422;DHT22;39319;52.944;5.928;2023-02-13T07:45:51;9.10;99.90
53422;DHT22;39319;52.944;5.928;2023-02-13T07:48:23;9.00;99.90
53422;DHT22;39319;52.944;5.928;2023-02-13T07:50:49;9.10;99.90
53422;DHT22;39319;52.944;5.928;2023-02-13T07:53:15;9.10;99.90
53422;DHT22;39319;52.944;5.928;2023-02-13T07:55:41;9.20;99.90
53422;DHT22;39319;52.944;5.928;2023-02-13T07:58:07;9.20;99.90
53422;DHT22;39319;52.944;5.928;2023-02-13T08:00:32;9.00;99.90
53422;DHT22;39319;52.944;5.928;2023-02-13T08:02:59;9.10;99.90
53422;DHT22;39319;52.944;5.928;2023-02-13T08:05:24;9.20;99.90
53422;DHT22;39319;52.944;5.928;2023-02-13T08:07:51;9.20;99.90
53422;DHT22;39319;52.944;5.928;2023-02-13T08:10:17;9.20;99.90
53422;DHT22;39319;52.944;5.928;2023-02-13T08:13:02;9.20;99.90
53422;DHT22;39319;52.944;5.928;2023-02-13T08:15:28;9.20;99.90
53422;DHT22;39319;52.944;5.928;2023-02-13T08:17:54;9.30;99.90
53422;DHT22;39319;52.944;5.928;2023-02-13T08:20:19;9.30;99.90
53422;DHT22;39319;52.944;5.928;2023-02-13T08:22:45;9.30;99.90
53422;DHT22;39319;52.944;5.928;2023-02-13T08:25:11;9.20;99.90
53422;DHT22;39319;52.944;5.928;2023-02-13T08:27:37;9.30;99.90
53422;DHT22;39319;52.944;5.928;2023-02-13T08:30:04;9.30;99.90
53422;DHT22;39319;52.944;5.928;2023-02-13T08:32:30;9.30;99.90
53422;DHT22;39319;52.944;5.928;2023-02-13T08:34:55;9.20;99.90
53422;DHT22;39319;52.944;5.928;2023-02-13T08:37:21;9.30;99.90
53422;DHT22;39319;52.944;5.928;2023-02-13T08:39:49;9.40;99.90
53422;DHT22;39319;52.944;5.928;2023-02-13T08:42:15;9.40;99.90
53422;DHT22;39319;52.944;5.928;2023-02-13T08:44:40;9.40;99.90
53422;DHT22;39319;52.944;5.928;2023-02-13T08:47:07;9.40;99.90
53422;DHT22;39319;52.944;5.928;2023-02-13T08:49:33;9.40;99.90
53422;DHT22;39319;52.944;5.928;2023-02-13T08:52:02;9.40;99.90
53422;DHT22;39319;52.944;5.928;2023-02-13T08:54:29;9.40;99.90
53422;DHT22;39319;52.944;5.928;2023-02-13T08:56:54;9.50;99.90
53422;DHT22;39319;52.944;5.928;2023-02-13T08:59:20;9.40;99.90
53422;DHT22;39319;52.944;5.928;2023-02-13T09:01:46;9.40;99.90
53422;DHT22;39319;52.944;5.928;2023-02-13T09:04:12;9.50;99.90
53422;DHT22;39319;52.944;5.928;2023-02-13T09:06:41;9.60;99.90
53422;DHT22;39319;52.944;5.928;2023-02-13T09:09:07;9.70;99.90
53422;DHT22;39319;52.944;5.928;2023-02-13T09:11:33;9.80;99.90
53422;DHT22;39319;52.944;5.928;2023-02-13T09:13:58;9.70;99.90
53422;DHT22;39319;52.944;5.928;2023-02-13T09:16:24;9.70;99.90
53422;DHT22;39319;52.944;5.928;2023-02-13T09:18:50;9.70;99.90
53422;DHT22;39319;52.944;5.928;2023-02-13T09:21:18;9.80;99.80
53422;DHT22;39319;52.944;5.928;2023-02-13T09:23:44;9.70;99.70
53422;DHT22;39319;52.944;5.928;2023-02-13T09:26:11;9.70;99.60
53422;DHT22;39319;52.944;5.928;2023-02-13T09:28:38;9.80;99.80
53422;DHT22;39319;52.944;5.928;2023-02-13T09:31:12;9.70;99.80
53422;DHT22;39319;52.944;5.928;2023-02-13T09:33:41;9.70;99.80
53422;DHT22;39319;52.944;5.928;2023-02-13T09:36:11;9.70;99.70
53422;DHT22;39319;52.944;5.928;2023-02-13T09:38:39;9.80;99.70
53422;DHT22;39319;52.944;5.928;2023-02-13T09:41:42;9.80;99.70
53422;DHT22;39319;52.944;5.928;2023-02-13T09:44:23;9.80;99.70
53422;DHT22;39319;52.944;5.928;2023-02-13T09:50:20;9.80;99.70
53422;DHT22;39319;52.944;5.928;2023-02-13T09:52:49;9.90;99.60
53422;DHT22;39319;52.944;5.928;2023-02-13T09:55:38;9.90;99.60
53422;DHT22;39319;52.944;5.928;2023-02-13T10:01:04;9.90;99.50
53422;DHT22;39319;52.944;5.928;2023-02-13T10:17:20;10.00;99.40
53422;DHT22;39319;52.944;5.928;2023-02-13T10:19:49;10.10;99.70
53422;DHT22;39319;52.944;5.928;2023-02-13T10:25:05;10.10;99.40
53422;DHT22;39319;52.944;5.928;2023-02-13T10:27:36;10.20;99.10
53422;DHT22;39319;52.944;5.928;2023-02-13T10:30:13;10.10;99.10
53422;DHT22;39319;52.944;5.928;2023-02-13T10:32:46;11.00;99.60
53422;DHT22;39319;52.944;5.928;2023-02-13T10:35:25;10.20;99.50
53422;DHT22;39319;52.944;5.928;2023-02-13T10:37:55;10.20;99.30
53422;DHT22;39319;52.944;5.928;2023-02-13T10:40:27;10.40;99.40
53422;DHT22;39319;52.944;5.928;2023-02-13T10:43:08;10.30;99.20
53422;DHT22;39319;52.944;5.928;2023-02-13T10:51:34;10.30;99.40
53422;DHT22;39319;52.944;5.928;2023-02-13T10:56:46;10.40;99.30
53422;DHT22;39319;52.944;5.928;2023-02-13T10:59:36;10.60;99.30
53422;DHT22;39319;52.944;5.928;2023-02-13T11:02:17;10.50;99.30
53422;DHT22;39319;52.944;5.928;2023-02-13T11:04:45;10.50;99.30
53422;DHT22;39319;52.944;5.928;2023-02-13T11:07:17;10.40;99.10
53422;DHT22;39319;52.944;5.928;2023-02-13T11:09:46;10.40;99.00
53422;DHT22;39319;52.944;5.928;2023-02-13T11:12:30;10.60;99.00
53422;DHT22;39319;52.944;5.928;2023-02-13T11:15:20;10.60;99.00
53422;DHT22;39319;52.944;5.928;2023-02-13T11:17:46;10.60;99.10
53422;DHT22;39319;52.944;5.928;2023-02-13T11:20:33;10.70;99.30
53422;DHT22;39319;52.944;5.928;2023-02-13T11:25:56;10.80;99.40
53422;DHT22;39319;52.944;5.928;2023-02-13T11:28:22;10.80;99.40
53422;DHT22;39319;52.944;5.928;2023-02-13T11:30:48;11.00;99.40
53422;DHT22;39319;52.944;5.928;2023-02-13T11:33:20;10.90;99.30
53422;DHT22;39319;52.944;5.928;2023-02-13T11:35:47;10.90;99.20
53422;DHT22;39319;52.944;5.928;2023-02-13T11:40:44;11.00;98.70
53422;DHT22;39319;52.944;5.928;2023-02-13T11:43:42;11.10;98.80
53422;DHT22;39319;52.944;5.928;2023-02-13T11:48:42;11.10;99.10
53422;DHT22;39319;52.944;5.928;2023-02-13T11:51:08;11.20;98.90
53422;DHT22;39319;52.944;5.928;2023-02-13T11:53:38;11.40;98.90
53422;DHT22;39319;52.944;5.928;2023-02-13T11:56:08;11.50;98.80
53422;DHT22;39319;52.944;5.928;2023-02-13T11:58:35;11.50;98.50
53422;DHT22;39319;52.944;5.928;2023-02-13T12:04:01;11.60;98.30
53422;DHT22;39319;52.944;5.928;2023-02-13T12:06:27;11.60;98.40
53422;DHT22;39319;52.944;5.928;2023-02-13T12:08:53;11.60;98.10
53422;DHT22;39319;52.944;5.928;2023-02-13T12:13:49;11.70;98.80
53422;DHT22;39319;52.944;5.928;2023-02-13T12:16:33;11.70;98.30
53422;DHT22;39319;52.944;5.928;2023-02-13T12:19:06;11.60;98.30
53422;DHT22;39319;52.944;5.928;2023-02-13T12:29:55;11.80;97.80
53422;DHT22;39319;52.944;5.928;2023-02-13T12:38:53;11.80;98.20
53422;DHT22;39319;52.944;5.928;2023-02-13T12:43:50;11.90;97.70
53422;DHT22;39319;52.944;5.928;2023-02-13T13:07:31;11.90;97.00
53422;DHT22;39319;52.944;5.928;2023-02-13T13:21:50;11.90;97.00
53422;DHT22;39319;52.944;5.928;2023-02-13T13:27:41;11.90;96.80
53422;DHT22;39319;52.944;5.928;2023-02-13T13:30:21;11.90;96.90
53422;DHT22;39319;52.944;5.928;2023-02-13T13:32:53;11.90;96.80
53422;DHT22;39319;52.944;5.928;2023-02-13T13:35:20;11.90;96.70
53422;DHT22;39319;52.944;5.928;2023-02-13T13:38:14;11.90;96.90
53422;DHT22;39319;52.944;5.928;2023-02-13T13:43:25;12.00;96.60
53422;DHT22;39319;52.944;5.928;2023-02-13T13:51:30;11.90;96.40
53422;DHT22;39319;52.944;5.928;2023-02-13T14:07:40;11.90;96.60
53422;DHT22;39319;52.944;5.928;2023-02-13T14:20:42;11.90;96.60
53422;DHT22;39319;52.944;5.928;2023-02-13T14:25:50;12.00;96.30
53422;DHT22;39319;52.944;5.928;2023-02-13T14:28:34;11.90;96.50
53422;DHT22;39319;52.944;5.928;2023-02-13T14:31:09;11.90;96.50
53422;DHT22;39319;52.944;5.928;2023-02-13T14:34:38;11.90;96.90
53422;DHT22;39319;52.944;5.928;2023-02-13T14:36:57;11.90;96.60
53422;DHT22;39319;52.944;5.928;2023-02-13T14:39:30;11.90;96.70
53422;DHT22;39319;52.944;5.928;2023-02-13T14:41:59;11.90;96.70
53422;DHT22;39319;52.944;5.928;2023-02-13T14:44:46;11.90;96.60
53422;DHT22;39319;52.944;5.928;2023-02-13T14:47:25;11.90;96.80
53422;DHT22;39319;52.944;5.928;2023-02-13T14:49:55;11.90;96.80
53422;DHT22;39319;52.944;5.928;2023-02-13T14:52:25;11.80;96.30
53422;DHT22;39319;52.944;5.928;2023-02-13T14:55:01;11.90;96.80
53422;DHT22;39319;52.944;5.928;2023-02-13T14:57:38;11.80;96.70
53422;DHT22;39319;52.944;5.928;2023-02-13T15:00:09;11.80;96.70
53422;DHT22;39319;52.944;5.928;2023-02-13T15:02:44;11.90;96.80
53422;DHT22;39319;52.944;5.928;2023-02-13T15:05:13;11.90;96.30
53422;DHT22;39319;52.944;5.928;2023-02-13T15:12:58;11.80;96.40
53422;DHT22;39319;52.944;5.928;2023-02-13T15:15:32;11.70;96.70
53422;DHT22;39319;52.944;5.928;2023-02-13T15:18:00;11.70;96.50
53422;DHT22;39319;52.944;5.928;2023-02-13T15:20:30;11.70;96.50
53422;DHT22;39319;52.944;5.928;2023-02-13T15:22:57;11.70;96.80
53422;DHT22;39319;52.944;5.928;2023-02-13T15:25:36;11.70;96.90
53422;DHT22;39319;52.944;5.928;2023-02-13T15:28:05;11.60;97.00
53422;DHT22;39319;52.944;5.928;2023-02-13T15:30:36;11.70;97.30
53422;DHT22;39319;52.944;5.928;2023-02-13T15:33:17;12.60;97.00
53422;DHT22;39319;52.944;5.928;2023-02-13T15:35:43;11.70;96.80
53422;DHT22;39319;52.944;5.928;2023-02-13T15:38:23;11.70;97.00
53422;DHT22;39319;52.944;5.928;2023-02-13T15:40:51;11.60;97.00
53422;DHT22;39319;52.944;5.928;2023-02-13T15:43:27;11.50;97.00
53422;DHT22;39319;52.944;5.928;2023-02-13T15:45:59;11.60;96.90
53422;DHT22;39319;52.944;5.928;2023-02-13T15:48:28;11.50;96.60
53422;DHT22;39319;52.944;5.928;2023-02-13T15:50:54;11.50;96.90
53422;DHT22;39319;52.944;5.928;2023-02-13T15:53:20;11.50;96.90
53422;DHT22;39319;52.944;5.928;2023-02-13T15:56:03;11.40;96.90
53422;DHT22;39319;52.944;5.928;2023-02-13T15:58:33;11.30;96.90
53422;DHT22;39319;52.944;5.928;2023-02-13T16:01:03;11.30;97.00
53422;DHT22;39319;52.944;5.928;2023-02-13T16:03:31;11.20;97.20
53422;DHT22;39319;52.944;5.928;2023-02-13T16:05:57;11.20;97.20
53422;DHT22;39319;52.944;5.928;2023-02-13T16:08:29;11.20;97.40
53422;DHT22;39319;52.944;5.928;2023-02-13T16:16:30;11.10;97.30
53422;DHT22;39319;52.944;5.928;2023-02-13T16:18:57;11.00;97.30
53422;DHT22;39319;52.944;5.928;2023-02-13T16:21:25;10.90;97.30
53422;DHT22;39319;52.944;5.928;2023-02-13T16:23:57;10.90;97.30
53422;DHT22;39319;52.944;5.928;2023-02-13T16:26:24;10.80;97.30
53422;DHT22;39319;52.944;5.928;2023-02-13T16:28:50;10.80;97.40
53422;DHT22;39319;52.944;5.928;2023-02-13T16:31:16;10.70;97.30
53422;DHT22;39319;52.944;5.928;2023-02-13T16:33:45;10.60;97.30
53422;DHT22;39319;52.944;5.928;2023-02-13T16:38:47;10.60;97.30
53422;DHT22;39319;52.944;5.928;2023-02-13T16:43:52;10.50;97.40
53422;DHT22;39319;52.944;5.928;2023-02-13T16:56:40;9.90;97.20
53422;DHT22;39319;52.944;5.928;2023-02-13T16:59:40;9.90;97.20
53422;DHT22;39319;52.944;5.928;2023-02-13T17:02:32;9.90;97.10
53422;DHT22;39319;52.944;5.928;2023-02-13T17:10:04;9.60;97.10
53422;DHT22;39319;52.944;5.928;2023-02-13T17:12:34;9.50;97.20
53422;DHT22;39319;52.944;5.928;2023-02-13T17:15:00;9.40;97.00
53422;DHT22;39319;52.944;5.928;2023-02-13T17:17:29;9.40;96.90
53422;DHT22;39319;52.944;5.928;2023-02-13T17:19:56;9.30;97.10
53422;DHT22;39319;52.944;5.928;2023-02-13T17:22:38;9.40;97.10
53422;DHT22;39319;52.944;5.928;2023-02-13T17:25:25;9.20;97.20
53422;DHT22;39319;52.944;5.928;2023-02-13T17:27:54;9.00;97.20
53422;DHT22;39319;52.944;5.928;2023-02-13T17:30:22;9.00;97.30
53422;DHT22;39319;52.944;5.928;2023-02-13T17:32:49;9.00;97.20
53422;DHT22;39319;52.944;5.928;2023-02-13T17:35:16;8.90;97.20
53422;DHT22;39319;52.944;5.928;2023-02-13T17:37:43;8.80;97.30
53422;DHT22;39319;52.944;5.928;2023-02-13T17:40:15;8.70;97.30
53422;DHT22;39319;52.944;5.928;2023-02-13T17:42:43;8.80;97.50
53422;DHT22;39319;52.944;5.928;2023-02-13T17:45:13;8.60;97.20
53422;DHT22;39319;52.944;5.928;2023-02-13T17:47:40;8.60;97.30
53422;DHT22;39319;52.944;5.928;2023-02-13T17:50:09;8.50;97.40
53422;DHT22;39319;52.944;5.928;2023-02-13T17:52:35;8.50;97.30
53422;DHT22;39319;52.944;5.928;2023-02-13T17:55:01;8.50;97.40
53422;DHT22;39319;52.944;5.928;2023-02-13T17:57:28;8.40;97.30
53422;DHT22;39319;52.944;5.928;2023-02-13T17:59:53;8.40;97.30
53422;DHT22;39319;52.944;5.928;2023-02-13T18:02:22;8.30;97.30
53422;DHT22;39319;52.944;5.928;2023-02-13T18:04:49;8.40;97.30
53422;DHT22;39319;52.944;5.928;2023-02-13T18:07:17;8.30;97.40
53422;DHT22;39319;52.944;5.928;2023-02-13T18:09:44;8.30;97.50
53422;DHT22;39319;52.944;5.928;2023-02-13T18:12:15;8.20;97.40
53422;DHT22;39319;52.944;5.928;2023-02-13T18:14:41;8.20;97.40
53422;DHT22;39319;52.944;5.928;2023-02-13T18:17:07;8.30;97.50
53422;DHT22;39319;52.944;5.928;2023-02-13T18:19:33;8.10;97.50
53422;DHT22;39319;52.944;5.928;2023-02-13T18:21:59;8.20;97.50
53422;DHT22;39319;52.944;5.928;2023-02-13T18:24:32;8.10;97.40
53422;DHT22;39319;52.944;5.928;2023-02-13T18:26:58;8.10;97.40
53422;DHT22;39319;52.944;5.928;2023-02-13T18:29:24;8.00;97.60
53422;DHT22;39319;52.944;5.928;2023-02-13T18:31:51;8.00;97.40
53422;DHT22;39319;52.944;5.928;2023-02-13T18:34:21;8.00;97.50
53422;DHT22;39319;52.944;5.928;2023-02-13T18:36:48;8.10;97.60
53422;DHT22;39319;52.944;5.928;2023-02-13T18:39:15;7.80;97.60
53422;DHT22;39319;52.944;5.928;2023-02-13T18:41:40;7.90;97.50
53422;DHT22;39319;52.944;5.928;2023-02-13T18:44:06;7.90;97.40
53422;DHT22;39319;52.944;5.928;2023-02-13T18:46:32;7.90;97.50
53422;DHT22;39319;52.944;5.928;2023-02-13T18:48:58;7.80;97.50
53422;DHT22;39319;52.944;5.928;2023-02-13T18:51:23;7.70;97.50
53422;DHT22;39319;52.944;5.928;2023-02-13T18:53:49;7.80;97.50
53422;DHT22;39319;52.944;5.928;2023-02-13T18:56:15;7.70;97.60
53422;DHT22;39319;52.944;5.928;2023-02-13T18:58:41;7.70;97.60
53422;DHT22;39319;52.944;5.928;2023-02-13T19:01:07;7.60;97.60
53422;DHT22;39319;52.944;5.928;2023-02-13T19:03:35;7.50;97.50
53422;DHT22;39319;52.944;5.928;2023-02-13T19:06:07;7.50;97.60
53422;DHT22;39319;52.944;5.928;2023-02-13T19:08:34;7.60;97.40
53422;DHT22;39319;52.944;5.928;2023-02-13T19:11:05;7.60;97.50
53422;DHT22;39319;52.944;5.928;2023-02-13T19:13:31;7.60;97.50
53422;DHT22;39319;52.944;5.928;2023-02-13T19:16:02;7.50;97.60
53422;DHT22;39319;52.944;5.928;2023-02-13T19:18:28;7.40;97.60
53422;DHT22;39319;52.944;5.928;2023-02-13T19:21:01;7.40;97.60
53422;DHT22;39319;52.944;5.928;2023-02-13T19:23:27;7.40;97.70